Accueil
METAR-TAF:

METAR-TAF

Aéroports :

Saragosse, Espagne

Aéroport de Saragosse

latitude: 41-40N, longitude: 001-01W, altitude: 263 m

Observation

Le bulletin a été fait il y a 24 minutes, à 01:30 UTC
Vent 20 kt de ouest/nord-ouest avec des rafales jusqu'à 30 kt, variant entre ouest et nord-ouest
Température 21°C
Humidité 64%
Pression 1021 hPa
Visibilité 10 km ou plus
pas de nuages en-dessous de 1500 mètres et pas de cumulonimbus.

METAR: LEZG 240130Z 29020G30KT 260V320 CAVOK 21/14 Q1021

Heure: 03:54 (01:54 UTC)

Prévision

Le bulletin a été fait il y a 8 heures et 54 minutes, à 17:00 UTC
Prévision valable du 23 à 18 UTC au 24 à 18 UTC
Vent 9 kt de ouest/nord-ouest
Visibilité 10 km ou plus
Quelques nuages à une hauteur de 5000 ft
Evoluant progressivement
du 23 à 18 UTC au 23 à 21 UTC
Vent 16 kt de ouest/nord-ouest

TAF: LEZG 231700Z 2318/2418 29009KT 9999 FEW050 TX35/2414Z TN19/2406Z BECMG 2318/2321 30016KT

Observations et prévisions météorologiques de plus de 4000 aéroports (messages METAR et TAF).

Les stations disponibles sont représentées par des disques jaunes et rouges sur la carte.

Passer la souris dessus pour voir le nom de la station.

Cliquer dessus pour voir les observations et prévisions météorologiques.

Pour changer de carte: cliquez sur les boutons verts avec une croix noire pour zoomer, sur le bouton vert avec un tiret pour effectuer un zoom arrière, ou sur les flèches vertes pour les cartes adjacentes.


METAR-TAF: